createdAt,value
2022-10-05T00:00:23.986Z,9.40
2022-10-05T00:15:23.656Z,9.15
2022-10-05T00:30:23.504Z,8.90
2022-10-05T00:45:23.441Z,8.73
2022-10-05T01:00:24.323Z,8.55
2022-10-05T01:15:23.726Z,8.70
2022-10-05T01:30:24.411Z,8.20
2022-10-05T01:45:24.037Z,8.33
2022-10-05T02:00:24.079Z,8.23
2022-10-05T02:15:23.920Z,8.05
2022-10-05T02:30:25.924Z,7.30
2022-10-05T02:45:33.179Z,7.70
2022-10-05T03:00:32.988Z,7.68
2022-10-05T03:15:23.325Z,7.57
2022-10-05T03:30:24.415Z,7.40
2022-10-05T03:45:23.075Z,7.33
2022-10-05T04:00:27.819Z,7.15
2022-10-05T04:15:23.292Z,7.23
2022-10-05T04:30:23.323Z,7.03
2022-10-05T04:45:23.244Z,7.00
2022-10-05T05:00:29.590Z,6.62
2022-10-05T05:15:23.461Z,6.70
2022-10-05T05:30:27.483Z,6.70
2022-10-05T05:45:23.607Z,6.72
2022-10-05T06:00:35.492Z,6.50
2022-10-05T06:15:23.462Z,6.78
2022-10-05T06:30:24.313Z,6.73
2022-10-05T06:45:23.597Z,6.82
2022-10-05T07:00:32.327Z,6.70
2022-10-05T07:15:23.798Z,6.82
2022-10-05T07:30:23.855Z,7.73
2022-10-05T07:45:23.886Z,8.75
2022-10-05T08:00:27.029Z,8.93
2022-10-05T08:15:23.926Z,9.30
2022-10-05T08:30:33.000Z,10.00
2022-10-05T08:45:33.850Z,10.68
2022-10-05T09:00:38.674Z,11.27
2022-10-05T09:15:26.218Z,11.82
2022-10-05T09:30:23.958Z,12.57
2022-10-05T09:45:23.264Z,14.00
2022-10-05T10:00:24.832Z,13.82
2022-10-05T10:15:23.386Z,14.35
2022-10-05T10:30:27.649Z,15.07
2022-10-05T10:45:23.222Z,15.57
2022-10-05T11:00:38.375Z,16.27
2022-10-05T11:15:23.507Z,17.08
2022-10-05T11:30:25.921Z,17.27
2022-10-05T11:45:23.491Z,18.38
2022-10-05T12:00:26.809Z,18.77
2022-10-05T12:15:24.010Z,19.20
2022-10-05T12:30:23.814Z,19.80
2022-10-05T12:45:23.862Z,20.20
2022-10-05T13:00:31.997Z,20.48
2022-10-05T13:15:23.988Z,20.70
2022-10-05T13:30:26.339Z,21.08
2022-10-05T13:45:33.312Z,21.33
2022-10-05T14:00:33.417Z,21.70
2022-10-05T14:15:23.081Z,21.78
2022-10-05T14:30:23.376Z,22.25
2022-10-05T14:45:23.213Z,22.27
2022-10-05T15:00:30.360Z,22.15
2022-10-05T15:15:23.306Z,22.35
2022-10-05T15:30:25.458Z,21.92
2022-10-05T15:45:23.269Z,21.50
2022-10-05T16:00:24.742Z,21.12
2022-10-05T16:15:23.456Z,20.50
2022-10-05T16:30:23.548Z,19.50
2022-10-05T16:45:23.343Z,18.65
2022-10-05T17:00:24.719Z,17.97
2022-10-05T17:15:23.555Z,17.60
2022-10-05T17:30:23.626Z,17.20
2022-10-05T17:45:23.732Z,16.85
2022-10-05T18:00:26.168Z,16.33
2022-10-05T18:15:23.603Z,15.98
2022-10-05T18:30:25.666Z,15.83
2022-10-05T18:45:24.548Z,15.40
2022-10-05T19:00:33.040Z,15.08
2022-10-05T19:15:23.902Z,14.82
2022-10-05T19:30:32.988Z,14.60
2022-10-05T19:45:32.847Z,14.47
2022-10-05T20:00:38.343Z,14.20
2022-10-05T20:15:23.204Z,14.17
2022-10-05T20:30:23.179Z,13.83
2022-10-05T20:45:23.426Z,13.48
2022-10-05T21:00:28.935Z,13.47
2022-10-05T21:15:23.241Z,13.10
2022-10-05T21:30:23.455Z,12.88
2022-10-05T21:45:23.737Z,12.75
2022-10-05T22:00:45.207Z,13.50
2022-10-05T22:15:23.491Z,12.35
2022-10-05T22:30:23.502Z,12.10
2022-10-05T22:45:23.872Z,11.88
2022-10-05T23:00:35.159Z,11.83
2022-10-05T23:15:23.957Z,11.62
2022-10-05T23:30:23.756Z,11.38
2022-10-05T23:45:23.930Z,11.30
